createdAt,value
2018-01-16T00:00:08.506Z,7.10
2018-01-16T00:02:34.770Z,7.20
2018-01-16T00:05:01.020Z,7.10
2018-01-16T00:07:27.263Z,7.10
2018-01-16T00:09:54.260Z,7.00
2018-01-16T00:12:20.504Z,7.00
2018-01-16T00:14:46.776Z,7.00
2018-01-16T00:17:13.014Z,7.00
2018-01-16T00:19:39.283Z,7.00
2018-01-16T00:22:05.539Z,7.00
2018-01-16T00:24:31.867Z,7.00
2018-01-16T00:26:58.146Z,7.00
2018-01-16T00:29:24.413Z,7.00
2018-01-16T00:31:50.667Z,7.00
2018-01-16T00:34:16.886Z,7.00
2018-01-16T00:36:43.163Z,7.00
2018-01-16T00:39:09.406Z,6.90
2018-01-16T00:41:35.649Z,6.90
2018-01-16T00:44:02.327Z,6.90
2018-01-16T00:46:28.591Z,6.90
2018-01-16T00:48:54.858Z,6.80
2018-01-16T00:51:21.147Z,6.80
2018-01-16T00:53:48.503Z,6.70
2018-01-16T00:56:14.783Z,6.70
2018-01-16T00:58:41.034Z,6.60
2018-01-16T01:01:07.351Z,6.60
2018-01-16T01:03:33.599Z,6.60
2018-01-16T01:05:59.838Z,6.60
2018-01-16T01:08:26.115Z,6.60
2018-01-16T01:10:52.355Z,6.60
2018-01-16T01:13:19.047Z,6.60
2018-01-16T01:15:45.280Z,6.60
2018-01-16T01:18:11.561Z,6.50
2018-01-16T01:20:38.627Z,6.60
2018-01-16T01:23:04.903Z,6.60
2018-01-16T01:25:31.134Z,6.70
2018-01-16T01:27:57.427Z,6.70
2018-01-16T01:30:23.713Z,6.70
2018-01-16T01:32:49.937Z,6.80
2018-01-16T01:35:16.182Z,6.80
2018-01-16T01:37:43.169Z,6.80
2018-01-16T01:40:09.471Z,6.80
2018-01-16T01:42:39.707Z,6.80
2018-01-16T01:45:05.978Z,6.80
2018-01-16T01:47:32.218Z,6.80
2018-01-16T01:49:58.466Z,6.70
2018-01-16T01:52:24.702Z,6.60
2018-01-16T01:54:51.631Z,6.60
2018-01-16T01:57:17.882Z,6.50
2018-01-16T01:59:44.119Z,6.50
2018-01-16T02:02:11.118Z,6.50
2018-01-16T02:04:37.363Z,6.50
2018-01-16T02:07:03.614Z,6.50
2018-01-16T02:09:29.855Z,6.50
2018-01-16T02:11:56.102Z,6.40
2018-01-16T02:14:22.348Z,6.40
2018-01-16T02:16:48.619Z,6.40
2018-01-16T02:19:14.878Z,6.30
2018-01-16T02:21:41.139Z,6.30
2018-01-16T02:24:07.392Z,6.40
2018-01-16T02:26:33.652Z,6.30
2018-01-16T02:28:59.916Z,6.30
2018-01-16T02:31:26.159Z,6.20
2018-01-16T02:33:52.423Z,6.30
2018-01-16T02:36:18.683Z,6.20
2018-01-16T02:38:45.687Z,6.10
2018-01-16T02:41:11.939Z,6.20
2018-01-16T02:43:38.194Z,6.20
2018-01-16T02:46:04.438Z,6.20
2018-01-16T02:48:30.686Z,6.20
2018-01-16T02:50:56.934Z,6.20
2018-01-16T02:53:23.216Z,6.20
2018-01-16T02:55:49.487Z,6.20
2018-01-16T02:58:15.738Z,6.10
2018-01-16T03:00:42.015Z,6.10
2018-01-16T03:03:08.267Z,6.20
2018-01-16T03:05:34.539Z,6.20
2018-01-16T03:08:00.803Z,6.30
2018-01-16T03:10:27.808Z,6.30
2018-01-16T03:12:54.059Z,6.30
2018-01-16T03:15:20.322Z,6.30
2018-01-16T03:17:46.555Z,6.30
2018-01-16T03:20:13.539Z,6.40
2018-01-16T03:22:39.802Z,6.40
2018-01-16T03:25:06.062Z,6.40
2018-01-16T03:27:32.310Z,6.40
2018-01-16T03:29:58.583Z,6.40
2018-01-16T03:32:24.858Z,6.40
2018-01-16T03:34:51.083Z,6.40
2018-01-16T03:37:17.350Z,6.50
2018-01-16T03:39:43.603Z,6.70
2018-01-16T03:42:09.875Z,6.80
2018-01-16T03:44:36.139Z,6.70
2018-01-16T03:47:02.431Z,6.50
2018-01-16T03:49:28.667Z,6.30
2018-01-16T03:51:55.011Z,6.10
2018-01-16T03:54:22.012Z,5.80
2018-01-16T03:56:48.247Z,5.80
2018-01-16T03:59:16.390Z,5.70
2018-01-16T04:01:42.618Z,5.70
2018-01-16T04:04:08.871Z,5.70
2018-01-16T04:06:35.135Z,5.70
2018-01-16T04:09:01.400Z,5.50
2018-01-16T04:11:27.675Z,5.40
2018-01-16T04:13:53.933Z,5.30
2018-01-16T04:16:20.182Z,5.20
2018-01-16T04:18:46.404Z,5.00
2018-01-16T04:21:13.455Z,5.00
2018-01-16T04:23:40.479Z,5.00
2018-01-16T04:26:06.751Z,5.00
2018-01-16T04:28:32.978Z,5.10
2018-01-16T04:30:59.247Z,5.00
2018-01-16T04:33:25.491Z,5.00
2018-01-16T04:35:51.755Z,5.10
2018-01-16T04:38:18.014Z,5.20
2018-01-16T04:40:44.279Z,5.10
2018-01-16T04:43:10.543Z,5.20
2018-01-16T04:45:36.807Z,5.20
2018-01-16T04:48:03.312Z,5.30
2018-01-16T04:50:29.571Z,5.30
2018-01-16T04:52:55.812Z,5.40
2018-01-16T04:55:22.058Z,5.40
2018-01-16T04:57:48.319Z,5.40
2018-01-16T05:00:14.554Z,5.50
2018-01-16T05:02:40.807Z,5.50
2018-01-16T05:05:07.062Z,5.60
2018-01-16T05:07:33.324Z,5.60
2018-01-16T05:09:59.567Z,5.70
2018-01-16T05:12:25.820Z,5.70
2018-01-16T05:14:52.825Z,5.90
2018-01-16T05:17:19.111Z,5.80
2018-01-16T05:19:45.339Z,5.90
2018-01-16T05:22:11.568Z,6.00
2018-01-16T05:24:37.818Z,6.00
2018-01-16T05:27:04.811Z,6.20
2018-01-16T05:29:31.116Z,6.20
2018-01-16T05:31:57.322Z,6.20
2018-01-16T05:34:24.327Z,6.30
2018-01-16T05:36:50.559Z,6.20
2018-01-16T05:39:16.971Z,6.30
2018-01-16T05:41:43.219Z,6.40
2018-01-16T05:44:09.468Z,6.50
2018-01-16T05:46:35.703Z,6.50
2018-01-16T05:49:01.969Z,6.40
2018-01-16T05:51:28.943Z,6.40
2018-01-16T05:53:55.216Z,6.40
2018-01-16T05:56:22.190Z,6.50
2018-01-16T05:58:49.169Z,6.50
2018-01-16T06:01:16.370Z,6.50
2018-01-16T06:03:42.603Z,6.50
2018-01-16T06:06:08.867Z,6.50
2018-01-16T06:08:35.106Z,6.50
2018-01-16T06:11:01.376Z,6.50
2018-01-16T06:13:27.603Z,6.60
2018-01-16T06:15:54.486Z,6.60
2018-01-16T06:18:20.750Z,6.60
2018-01-16T06:20:47.015Z,6.50
2018-01-16T06:23:13.279Z,6.60
2018-01-16T06:25:39.531Z,6.60
2018-01-16T06:28:05.790Z,6.60
2018-01-16T06:30:32.819Z,6.60
2018-01-16T06:32:59.078Z,6.60
2018-01-16T06:35:25.334Z,6.70
2018-01-16T06:37:51.563Z,6.60
2018-01-16T06:40:17.812Z,6.60
2018-01-16T06:42:44.055Z,6.70
2018-01-16T06:45:10.314Z,6.70
2018-01-16T06:47:36.572Z,6.70
2018-01-16T06:50:02.850Z,6.80
2018-01-16T06:52:29.096Z,6.80
2018-01-16T06:54:55.835Z,6.80
2018-01-16T06:57:22.084Z,6.80
2018-01-16T06:59:48.291Z,6.70
2018-01-16T07:02:14.556Z,6.80
2018-01-16T07:04:40.818Z,6.80
2018-01-16T07:07:07.822Z,6.70
2018-01-16T07:09:34.070Z,6.80
2018-01-16T07:12:00.338Z,6.80
2018-01-16T07:14:26.579Z,6.70
2018-01-16T07:16:52.867Z,6.70
2018-01-16T07:19:19.143Z,6.60
2018-01-16T07:21:45.403Z,6.60
2018-01-16T07:24:11.658Z,6.60
2018-01-16T07:26:37.938Z,6.60
2018-01-16T07:29:04.191Z,6.50
2018-01-16T07:31:31.199Z,6.40
2018-01-16T07:33:58.210Z,6.30
2018-01-16T07:36:24.467Z,6.30
2018-01-16T07:38:51.467Z,6.20
2018-01-16T07:41:17.703Z,6.20
2018-01-16T07:43:44.007Z,6.20
2018-01-16T07:46:10.250Z,6.20
2018-01-16T07:48:36.515Z,6.10
2018-01-16T07:51:02.751Z,6.10
2018-01-16T07:53:29.004Z,6.10
2018-01-16T07:55:55.227Z,6.10
2018-01-16T07:58:22.266Z,6.10
2018-01-16T08:00:49.339Z,6.20
2018-01-16T08:03:16.342Z,6.20
2018-01-16T08:05:42.586Z,6.20
2018-01-16T08:08:08.842Z,6.30
2018-01-16T08:10:36.022Z,6.40
2018-01-16T08:13:02.267Z,6.40
2018-01-16T08:15:28.527Z,6.40
2018-01-16T08:17:54.824Z,6.50
2018-01-16T08:20:21.095Z,6.60
2018-01-16T08:22:47.339Z,6.70
2018-01-16T08:25:17.370Z,6.80
2018-01-16T08:27:44.367Z,6.90
2018-01-16T08:30:10.636Z,6.90
2018-01-16T08:32:36.878Z,7.10
2018-01-16T08:35:03.135Z,7.10
2018-01-16T08:37:29.391Z,7.10
2018-01-16T08:39:56.175Z,7.10
2018-01-16T08:42:22.404Z,7.00
2018-01-16T08:44:52.614Z,7.00
2018-01-16T08:47:18.860Z,7.00
2018-01-16T08:49:45.094Z,7.10
2018-01-16T08:52:11.354Z,7.20
2018-01-16T08:54:37.686Z,7.10
2018-01-16T08:57:03.947Z,7.10
2018-01-16T08:59:30.195Z,7.10
2018-01-16T09:01:56.467Z,7.00
2018-01-16T09:04:22.703Z,7.00
2018-01-16T09:06:48.962Z,7.00
2018-01-16T09:09:15.187Z,7.00
2018-01-16T09:11:42.267Z,7.10
2018-01-16T09:14:08.563Z,7.00
2018-01-16T09:16:34.808Z,7.10
2018-01-16T09:19:01.072Z,7.10
2018-01-16T09:21:27.365Z,7.10
2018-01-16T09:23:53.622Z,7.10
2018-01-16T09:26:19.872Z,7.20
2018-01-16T09:28:47.738Z,7.20
2018-01-16T09:31:13.974Z,7.20
2018-01-16T09:33:40.256Z,7.20
2018-01-16T09:36:06.504Z,7.20
2018-01-16T09:38:32.779Z,7.20
2018-01-16T09:40:59.026Z,7.20
2018-01-16T09:43:25.282Z,7.30
2018-01-16T09:45:51.556Z,7.40
2018-01-16T09:48:24.243Z,7.30
2018-01-16T09:50:50.512Z,7.20
2018-01-16T09:53:16.755Z,7.10
2018-01-16T09:55:43.012Z,7.20
2018-01-16T09:58:09.271Z,7.20
2018-01-16T10:00:35.543Z,7.20
2018-01-16T10:03:02.514Z,7.20
2018-01-16T10:05:28.779Z,7.30
2018-01-16T10:07:55.051Z,7.30
2018-01-16T10:10:21.359Z,7.20
2018-01-16T10:12:48.367Z,6.50
2018-01-16T10:25:07.807Z,7.00
2018-01-16T10:27:34.098Z,7.10
2018-01-16T10:30:00.331Z,7.10
2018-01-16T10:32:27.057Z,7.20
2018-01-16T10:34:53.391Z,7.20
2018-01-16T10:37:20.121Z,7.30
2018-01-16T10:39:46.401Z,7.40
2018-01-16T10:42:12.678Z,7.60
2018-01-16T10:44:38.991Z,7.80
2018-01-16T10:52:31.820Z,6.80
2018-01-16T10:54:58.108Z,6.40
2018-01-16T10:57:24.676Z,6.30
2018-01-16T10:59:51.021Z,6.20
2018-01-16T11:02:18.327Z,6.00
2018-01-16T11:04:44.607Z,6.00
2018-01-16T11:07:10.871Z,6.00
2018-01-16T11:09:37.186Z,5.90
2018-01-16T11:12:03.475Z,5.90
2018-01-16T11:14:30.522Z,6.20
2018-01-16T11:16:57.543Z,6.30
2018-01-16T11:19:23.854Z,6.30
2018-01-16T11:21:50.260Z,6.30
2018-01-16T11:24:17.279Z,6.40
2018-01-16T11:26:43.563Z,6.40
2018-01-16T11:29:09.808Z,6.50
2018-01-16T11:31:36.065Z,6.60
2018-01-16T11:34:02.379Z,6.60
2018-01-16T11:36:30.586Z,6.60
2018-01-16T11:38:57.043Z,6.60
2018-01-16T11:41:23.378Z,6.80
2018-01-16T11:43:50.286Z,7.00
2018-01-16T11:46:24.969Z,7.20
2018-01-16T11:48:51.252Z,7.30
2018-01-16T11:51:17.528Z,7.60
2018-01-16T11:53:45.723Z,7.70
2018-01-16T11:56:12.938Z,7.70
2018-01-16T11:58:39.215Z,7.70
2018-01-16T12:01:05.521Z,7.80
2018-01-16T12:03:32.253Z,7.80
2018-01-16T12:05:58.579Z,7.30
2018-01-16T12:08:24.820Z,7.20
2018-01-16T12:10:51.904Z,7.00
2018-01-16T12:13:18.205Z,6.90
2018-01-16T12:15:45.259Z,6.70
2018-01-16T12:18:11.516Z,6.70
2018-01-16T12:20:37.770Z,6.80
2018-01-16T12:23:04.075Z,6.90
2018-01-16T12:25:30.371Z,7.20
2018-01-16T12:27:56.610Z,7.50
2018-01-16T12:30:22.870Z,7.80
2018-01-16T12:32:49.190Z,7.90
2018-01-16T12:35:15.490Z,8.10
2018-01-16T12:37:42.691Z,8.00
2018-01-16T12:40:08.959Z,8.00
2018-01-16T12:42:35.627Z,7.90
2018-01-16T12:45:01.911Z,7.90
2018-01-16T12:47:28.212Z,7.80
2018-01-16T12:49:54.503Z,7.70
2018-01-16T12:52:20.857Z,7.70
2018-01-16T12:54:47.131Z,7.60
2018-01-16T12:57:13.391Z,7.80
2018-01-16T12:59:39.651Z,7.90
2018-01-16T13:02:05.894Z,8.10
2018-01-16T13:04:32.918Z,8.40
2018-01-16T13:06:59.225Z,8.40
2018-01-16T13:09:25.515Z,8.40
2018-01-16T13:11:51.802Z,8.30
2018-01-16T13:14:18.092Z,8.10
2018-01-16T13:16:44.775Z,7.90
2018-01-16T13:19:11.103Z,7.80
2018-01-16T13:21:38.128Z,7.40
2018-01-16T13:24:04.413Z,7.40
2018-01-16T13:26:30.719Z,7.40
2018-01-16T13:28:57.442Z,7.30
2018-01-16T13:31:23.955Z,6.80
2018-01-16T13:33:50.247Z,6.40
2018-01-16T13:36:16.625Z,6.40
2018-01-16T13:38:42.923Z,6.60
2018-01-16T13:41:09.972Z,7.10
2018-01-16T13:43:36.253Z,7.10
2018-01-16T13:46:02.543Z,7.40
2018-01-16T13:48:28.851Z,7.60
2018-01-16T13:50:55.123Z,7.70
2018-01-16T13:53:21.408Z,7.40
2018-01-16T13:55:48.103Z,7.40
2018-01-16T13:58:14.383Z,6.90
2018-01-16T14:00:40.611Z,6.70
2018-01-16T14:03:06.939Z,6.50
2018-01-16T14:05:33.166Z,6.20
2018-01-16T14:07:59.440Z,6.20
2018-01-16T14:10:25.676Z,6.30
2018-01-16T14:12:51.919Z,6.40
2018-01-16T14:15:18.194Z,6.70
2018-01-16T14:17:45.145Z,7.00
2018-01-16T14:20:11.394Z,7.10
2018-01-16T14:22:37.980Z,7.10
2018-01-16T14:25:04.238Z,7.30
2018-01-16T14:27:30.598Z,7.60
2018-01-16T14:29:57.611Z,8.00
2018-01-16T14:32:23.835Z,8.00
2018-01-16T14:34:50.082Z,8.00
2018-01-16T14:37:16.301Z,8.10
2018-01-16T14:39:42.563Z,8.10
2018-01-16T14:42:08.795Z,8.20
2018-01-16T14:44:35.801Z,8.20
2018-01-16T14:47:03.031Z,8.20
2018-01-16T14:49:29.285Z,8.20
2018-01-16T14:51:55.545Z,8.10
2018-01-16T14:54:21.816Z,7.90
2018-01-16T14:56:48.083Z,7.90
2018-01-16T14:59:14.381Z,7.80
2018-01-16T15:01:41.378Z,7.60
2018-01-16T15:04:08.395Z,7.50
2018-01-16T15:06:34.699Z,7.60
2018-01-16T15:09:01.670Z,6.70
2018-01-16T15:11:27.897Z,6.70
2018-01-16T15:13:54.176Z,6.30
2018-01-16T15:16:20.486Z,6.30
2018-01-16T15:18:46.854Z,6.30
2018-01-16T15:21:13.088Z,6.00
2018-01-16T15:23:39.347Z,5.90
2018-01-16T15:26:06.310Z,5.70
2018-01-16T15:28:32.571Z,5.70
2018-01-16T15:30:58.849Z,5.60
2018-01-16T15:33:25.151Z,5.50
2018-01-16T15:35:51.380Z,5.50
2018-01-16T15:38:18.399Z,5.40
2018-01-16T15:40:44.670Z,5.40
2018-01-16T15:43:11.023Z,5.30
2018-01-16T15:45:37.307Z,5.40
2018-01-16T15:48:03.563Z,5.40
2018-01-16T15:50:30.562Z,5.40
2018-01-16T15:52:56.795Z,5.40
2018-01-16T15:55:23.063Z,5.30
2018-01-16T15:57:49.324Z,5.20
2018-01-16T16:00:15.575Z,5.20
2018-01-16T16:02:41.820Z,5.10
2018-01-16T16:05:08.127Z,5.10
2018-01-16T16:07:34.371Z,5.00
2018-01-16T16:10:00.618Z,4.90
2018-01-16T16:12:26.923Z,4.90
2018-01-16T16:14:53.179Z,4.90
2018-01-16T16:17:19.449Z,5.00
2018-01-16T16:19:45.692Z,5.00
2018-01-16T16:22:12.675Z,5.10
2018-01-16T16:24:38.966Z,5.00
2018-01-16T16:27:05.227Z,5.10
2018-01-16T16:29:31.484Z,5.00
2018-01-16T16:31:57.724Z,5.10
2018-01-16T16:34:23.982Z,5.10
2018-01-16T16:36:50.222Z,5.00
2018-01-16T16:39:16.483Z,5.10
2018-01-16T16:41:42.751Z,5.10
2018-01-16T16:44:09.069Z,5.10
2018-01-16T16:46:35.382Z,5.10
2018-01-16T16:49:01.639Z,5.20
2018-01-16T16:51:27.882Z,5.30
2018-01-16T16:53:54.154Z,5.30
2018-01-16T16:56:20.431Z,5.30
2018-01-16T16:58:46.726Z,5.10
2018-01-16T17:01:13.204Z,4.80
2018-01-16T17:03:39.447Z,4.60
2018-01-16T17:06:05.707Z,4.40
2018-01-16T17:08:31.955Z,4.20
2018-01-16T17:11:00.021Z,4.10
2018-01-16T17:13:26.247Z,4.10
2018-01-16T17:15:52.508Z,4.00
2018-01-16T17:18:24.914Z,4.00
2018-01-16T17:20:51.175Z,3.90
2018-01-16T17:23:18.310Z,4.00
2018-01-16T17:25:44.555Z,4.00
2018-01-16T17:28:11.551Z,4.20
2018-01-16T17:30:37.803Z,4.10
2018-01-16T17:33:05.801Z,4.20
2018-01-16T17:35:32.091Z,4.20
2018-01-16T17:37:59.895Z,4.10
2018-01-16T17:40:26.162Z,4.20
2018-01-16T17:42:52.415Z,4.20
2018-01-16T17:45:18.662Z,4.30
2018-01-16T17:47:44.939Z,4.30
2018-01-16T17:50:11.909Z,3.90
2018-01-16T17:52:38.898Z,3.80
2018-01-16T17:55:05.130Z,3.70
2018-01-16T17:57:32.401Z,3.70
2018-01-16T17:59:59.692Z,3.70
2018-01-16T18:02:27.958Z,3.80
2018-01-16T18:04:55.787Z,3.90
2018-01-16T18:07:22.609Z,3.90
2018-01-16T18:09:49.718Z,3.90
2018-01-16T18:12:17.580Z,3.90
2018-01-16T18:14:44.651Z,3.90
2018-01-16T18:17:10.911Z,4.00
2018-01-16T18:19:37.190Z,4.00
2018-01-16T18:22:03.488Z,4.10
2018-01-16T18:24:29.768Z,4.10
2018-01-16T18:26:56.051Z,4.10
2018-01-16T18:29:22.290Z,4.10
2018-01-16T18:31:48.930Z,4.00
2018-01-16T18:34:16.484Z,4.00
2018-01-16T18:36:42.771Z,4.20
2018-01-16T18:39:09.759Z,4.40
2018-01-16T18:41:36.038Z,4.40
2018-01-16T18:44:03.042Z,4.40
2018-01-16T18:46:29.330Z,4.40
2018-01-16T18:48:55.604Z,4.30
2018-01-16T18:51:21.903Z,4.30
2018-01-16T18:53:48.143Z,4.30
2018-01-16T18:56:14.815Z,4.10
2018-01-16T18:58:41.101Z,4.00
2018-01-16T19:01:08.080Z,3.70
2018-01-16T19:03:34.912Z,3.80
2018-01-16T19:06:01.504Z,3.70
2018-01-16T19:08:27.814Z,3.70
2018-01-16T19:10:54.072Z,3.70
2018-01-16T19:13:21.052Z,3.70
2018-01-16T19:15:47.331Z,3.70
2018-01-16T19:18:13.572Z,3.70
2018-01-16T19:20:39.870Z,3.70
2018-01-16T19:23:06.143Z,3.70
2018-01-16T19:25:32.571Z,3.70
2018-01-16T19:27:59.876Z,3.60
2018-01-16T19:30:26.950Z,3.60
2018-01-16T19:32:53.974Z,3.60
2018-01-16T19:35:20.307Z,3.70
2018-01-16T19:37:46.554Z,3.70
2018-01-16T19:40:12.806Z,3.80
2018-01-16T19:42:39.046Z,3.80
2018-01-16T19:45:05.355Z,3.80
2018-01-16T19:47:33.707Z,3.70
2018-01-16T19:49:59.995Z,3.70
2018-01-16T19:52:26.226Z,3.70
2018-01-16T19:54:53.290Z,3.70
2018-01-16T19:57:20.280Z,3.70
2018-01-16T19:59:46.551Z,3.70
2018-01-16T20:02:12.889Z,3.80
2018-01-16T20:04:39.258Z,3.70
2018-01-16T20:07:05.633Z,3.70
2018-01-16T20:09:32.676Z,3.70
2018-01-16T20:11:58.938Z,3.60
2018-01-16T20:14:25.436Z,3.70
2018-01-16T20:16:51.711Z,3.50
2018-01-16T20:19:18.686Z,3.30
2018-01-16T20:21:44.923Z,3.20
2018-01-16T20:24:11.195Z,3.20
2018-01-16T20:26:37.451Z,3.20
2018-01-16T20:29:03.709Z,3.10
2018-01-16T20:31:29.975Z,3.20
2018-01-16T20:33:56.219Z,3.20
2018-01-16T20:36:22.539Z,3.10
2018-01-16T20:38:49.002Z,3.00
2018-01-16T20:41:16.353Z,3.00
2018-01-16T20:43:43.944Z,3.00
2018-01-16T20:46:12.071Z,2.90
2018-01-16T20:48:38.781Z,3.00
2018-01-16T20:51:05.247Z,3.30
2018-01-16T20:53:31.530Z,3.60
2018-01-16T20:55:57.836Z,3.80
2018-01-16T20:58:26.838Z,4.00
2018-01-16T21:00:53.355Z,4.00
2018-01-16T21:03:19.594Z,4.00
2018-01-16T21:05:45.880Z,4.10
2018-01-16T21:08:12.130Z,4.20
2018-01-16T21:10:38.392Z,4.10
2018-01-16T21:13:04.659Z,4.10
2018-01-16T21:15:31.695Z,4.10
2018-01-16T21:17:57.974Z,4.10
2018-01-16T21:20:24.210Z,4.10
2018-01-16T21:22:50.495Z,4.20
2018-01-16T21:25:26.179Z,4.20
2018-01-16T21:27:52.460Z,4.20
2018-01-16T21:30:19.475Z,4.30
2018-01-16T21:32:46.540Z,4.30
2018-01-16T21:35:12.798Z,4.30
2018-01-16T21:37:39.815Z,4.40
2018-01-16T21:40:06.978Z,4.50
2018-01-16T21:42:33.251Z,4.40
2018-01-16T21:44:59.510Z,4.50
2018-01-16T21:47:25.751Z,4.50
2018-01-16T21:49:52.044Z,4.50
2018-01-16T21:52:18.308Z,4.50
2018-01-16T21:54:44.590Z,4.60
2018-01-16T21:57:11.616Z,4.60
2018-01-16T21:59:37.882Z,4.60
2018-01-16T22:02:04.167Z,4.60
2018-01-16T22:04:30.439Z,4.70
2018-01-16T22:09:58.217Z,4.60
2018-01-16T22:12:28.710Z,4.70
2018-01-16T22:14:56.607Z,4.70
2018-01-16T22:17:22.852Z,4.70
2018-01-16T22:19:50.238Z,4.80
2018-01-16T22:22:16.491Z,4.80
2018-01-16T22:24:42.751Z,4.80
2018-01-16T22:27:09.776Z,4.80
2018-01-16T22:29:36.379Z,4.80
2018-01-16T22:32:02.643Z,4.80
2018-01-16T22:34:28.871Z,4.80
2018-01-16T22:36:55.126Z,4.80
2018-01-16T22:39:21.362Z,4.80
2018-01-16T22:41:48.387Z,4.90
2018-01-16T22:44:14.623Z,4.90
2018-01-16T22:46:40.902Z,4.90
2018-01-16T22:49:07.875Z,4.90
2018-01-16T22:51:34.134Z,4.90
2018-01-16T22:54:01.001Z,4.90
2018-01-16T22:56:29.064Z,4.90
2018-01-16T22:58:55.355Z,4.80
2018-01-16T23:01:22.150Z,4.70
2018-01-16T23:03:48.435Z,4.60
2018-01-16T23:06:14.675Z,4.50
2018-01-16T23:08:42.751Z,4.40
2018-01-16T23:11:09.026Z,4.30
2018-01-16T23:13:35.260Z,4.20
2018-01-16T23:16:04.447Z,4.10
2018-01-16T23:18:31.460Z,4.10
2018-01-16T23:20:57.739Z,4.00
2018-01-16T23:23:24.043Z,4.10
2018-01-16T23:25:50.298Z,4.10
2018-01-16T23:28:17.419Z,4.10
2018-01-16T23:30:43.680Z,4.10
2018-01-16T23:33:10.708Z,4.10
2018-01-16T23:35:36.951Z,4.10
2018-01-16T23:38:03.211Z,4.10
2018-01-16T23:40:31.363Z,4.10
2018-01-16T23:42:58.711Z,4.10
2018-01-16T23:45:24.978Z,4.10
2018-01-16T23:47:51.951Z,4.20
2018-01-16T23:50:18.231Z,4.20
2018-01-16T23:52:45.226Z,4.30
2018-01-16T23:55:11.482Z,4.30
2018-01-16T23:57:37.791Z,4.30
